Time;durP1;ratioP1;P1;durP2;ratioP2;P2;SDS_P1;SDS_P2;PMS_P1;PMS_P2;Temp;Humidity;BMP_temperature;BMP_pressure;BME280_temperature;BME280_humidity;BME280_pressure;Samples;Min_cycle;Max_cycle;Signal;HPM_P1;HPM_P2
2022/03/09 00:00:09;;;;;;;12.48;7.60;;;1.10;99.90;;;;;;5042970;28;20040;-70
2022/03/09 00:02:35;;;;;;;14.05;7.57;;;1.10;99.90;;;;;;4691475;28;9999646;-70
2022/03/09 00:05:01;;;;;;;11.75;7.20;;;1.00;99.90;;;;;;5040059;28;21099;-70
2022/03/09 00:07:27;;;;;;;11.85;7.18;;;1.00;99.90;;;;;;5046485;28;20186;-70
2022/03/09 00:09:53;;;;;;;11.80;6.78;;;1.00;99.90;;;;;;5039707;28;20026;-71
2022/03/09 00:12:19;;;;;;;10.93;7.10;;;1.00;99.90;;;;;;5053107;28;20028;-70
2022/03/09 00:14:45;;;;;;;11.43;6.90;;;1.00;99.90;;;;;;5059246;28;20028;-71
2022/03/09 00:17:11;;;;;;;12.80;7.38;;;1.00;99.90;;;;;;5054594;28;20031;-71
2022/03/09 00:19:36;;;;;;;11.07;6.93;;;0.90;99.90;;;;;;5054731;28;20036;-70
2022/03/09 00:22:02;;;;;;;15.50;7.65;;;0.90;99.90;;;;;;5046225;28;20040;-70
2022/03/09 00:24:28;;;;;;;12.50;7.28;;;0.90;99.90;;;;;;5048053;28;20033;-71
2022/03/09 00:26:53;;;;;;;12.85;7.10;;;0.90;99.90;;;;;;5053891;28;20038;-70
2022/03/09 00:29:19;;;;;;;13.80;7.78;;;0.90;99.90;;;;;;5042357;28;20098;-70
2022/03/09 00:31:45;;;;;;;13.05;7.75;;;0.80;99.90;;;;;;5039636;28;20029;-70
2022/03/09 00:34:11;;;;;;;14.32;8.40;;;0.80;99.90;;;;;;5033521;28;20080;-71
2022/03/09 00:36:37;;;;;;;12.77;7.78;;;0.80;99.90;;;;;;5042736;28;20021;-71
2022/03/09 00:39:03;;;;;;;13.90;7.95;;;0.70;99.90;;;;;;5047803;28;20109;-70
2022/03/09 00:41:29;;;;;;;14.50;8.52;;;0.70;99.90;;;;;;5054133;28;20052;-70
2022/03/09 00:43:55;;;;;;;13.55;8.30;;;0.70;99.90;;;;;;5044269;28;20032;-70
2022/03/09 00:46:21;;;;;;;14.45;8.15;;;0.60;99.90;;;;;;5039369;28;20029;-70
2022/03/09 00:48:46;;;;;;;17.17;8.80;;;0.60;99.90;;;;;;5036547;28;20728;-70
2022/03/09 00:51:12;;;;;;;15.73;9.27;;;0.50;99.90;;;;;;5044253;28;20066;-70
2022/03/09 00:53:39;;;;;;;15.88;9.38;;;0.50;99.90;;;;;;5053304;28;20054;-70
2022/03/09 00:56:05;;;;;;;18.02;9.60;;;0.50;99.90;;;;;;5036182;28;20132;-70
2022/03/09 00:58:31;;;;;;;14.55;9.15;;;0.50;99.90;;;;;;5038659;28;20119;-70
2022/03/09 01:00:56;;;;;;;12.55;7.97;;;0.40;99.90;;;;;;5050303;28;20618;-70
2022/03/09 01:03:22;;;;;;;13.82;8.15;;;0.50;99.90;;;;;;5042204;28;20033;-70
2022/03/09 01:05:47;;;;;;;19.17;10.35;;;0.50;99.90;;;;;;5043226;28;20132;-70
2022/03/09 01:08:14;;;;;;;20.55;11.63;;;0.40;99.90;;;;;;5043803;28;20044;-70
2022/03/09 01:10:40;;;;;;;18.38;10.30;;;0.40;99.90;;;;;;5051281;28;20528;-70
2022/03/09 01:13:05;;;;;;;15.85;9.63;;;0.40;99.90;;;;;;5041448;28;20056;-70
2022/03/09 01:15:31;;;;;;;15.25;8.77;;;0.40;99.90;;;;;;5038482;28;20021;-70
2022/03/09 01:17:57;;;;;;;16.48;9.10;;;0.40;99.90;;;;;;5057576;28;20044;-71
2022/03/09 01:20:22;;;;;;;18.17;9.85;;;0.40;99.90;;;;;;5049686;28;20079;-70
2022/03/09 01:22:48;;;;;;;19.63;10.13;;;0.30;99.90;;;;;;5045541;28;20031;-70
2022/03/09 01:25:14;;;;;;;18.15;10.20;;;0.20;99.90;;;;;;5038340;28;20021;-70
2022/03/09 01:27:39;;;;;;;19.13;11.13;;;0.10;99.90;;;;;;5047288;28;20591;-70
2022/03/09 01:30:07;;;;;;;20.75;11.27;;;0.00;99.90;;;;;;5049894;28;20036;-70
2022/03/09 01:32:32;;;;;;;18.02;10.68;;;-0.10;99.90;;;;;;5038274;28;20028;-70
2022/03/09 01:34:58;;;;;;;19.85;10.68;;;-0.10;99.90;;;;;;5039417;28;20021;-70
2022/03/09 01:37:24;;;;;;;17.92;10.80;;;0.00;99.90;;;;;;5052406;28;20025;-70
2022/03/09 01:39:50;;;;;;;21.10;11.50;;;-0.10;99.90;;;;;;5054208;28;20515;-70
2022/03/09 01:42:15;;;;;;;20.98;11.73;;;-0.10;99.90;;;;;;5041740;28;20158;-70
2022/03/09 01:44:41;;;;;;;19.95;11.10;;;0.00;99.90;;;;;;5053594;28;20034;-70
2022/03/09 01:47:07;;;;;;;20.63;12.15;;;0.00;99.90;;;;;;5039086;28;20025;-70
2022/03/09 01:49:33;;;;;;;20.73;11.02;;;0.00;99.90;;;;;;5034195;28;20037;-70
2022/03/09 01:52:00;;;;;;;19.05;11.18;;;0.00;99.90;;;;;;5040499;28;20052;-70
2022/03/09 01:54:27;;;;;;;20.75;11.10;;;0.20;99.90;;;;;;5047177;28;20528;-70
2022/03/09 01:56:53;;;;;;;17.75;10.85;;;0.20;99.90;;;;;;5042049;28;20052;-70
2022/03/09 01:59:19;;;;;;;18.92;10.88;;;0.20;99.90;;;;;;5052734;28;20060;-70
2022/03/09 02:01:46;;;;;;;17.15;10.20;;;0.20;99.90;;;;;;5035400;28;20559;-70
2022/03/09 02:04:12;;;;;;;17.75;10.57;;;0.20;99.90;;;;;;5033713;28;20116;-70
2022/03/09 02:06:39;;;;;;;18.67;10.65;;;0.10;99.90;;;;;;5043445;28;20083;-70
2022/03/09 02:11:51;;;;;;;17.83;10.10;;;0.00;99.90;;;;;;5038687;28;20079;-70
2022/03/09 02:14:36;;;;;;;19.40;10.90;;;0.00;99.90;;;;;;5042125;28;20405;-70
2022/03/09 02:17:07;;;;;;;21.15;11.27;;;0.00;99.90;;;;;;5046655;28;20186;-70
2022/03/09 02:19:34;;;;;;;19.92;11.75;;;-0.10;99.90;;;;;;5038025;28;20042;-70
2022/03/09 02:22:09;;;;;;;22.15;11.32;;;-0.10;99.90;;;;;;5024221;28;20029;-70
2022/03/09 02:24:35;;;;;;;16.95;10.25;;;-0.10;99.90;;;;;;5046297;28;20036;-70
2022/03/09 02:27:01;;;;;;;18.25;10.43;;;-0.20;99.90;;;;;;5046921;28;20033;-70
2022/03/09 02:29:26;;;;;;;18.52;10.60;;;-0.20;99.90;;;;;;5049619;28;20032;-70
2022/03/09 02:31:52;;;;;;;17.20;10.00;;;-0.20;99.90;;;;;;5039354;28;20027;-70
2022/03/09 02:34:18;;;;;;;17.10;11.05;;;-0.20;99.90;;;;;;5039274;28;20440;-70
2022/03/09 02:36:43;;;;;;;17.88;10.65;;;-0.20;99.90;;;;;;5017447;28;20499;-70
2022/03/09 02:39:09;;;;;;;17.95;10.40;;;0.00;99.90;;;;;;5037307;28;20043;-70
2022/03/09 02:42:01;;;;;;;16.20;10.25;;;-0.30;99.90;;;;;;5035005;28;20036;-70
2022/03/09 02:44:26;;;;;;;18.23;10.52;;;-0.40;99.90;;;;;;5038221;28;20033;-70
2022/03/09 02:46:52;;;;;;;14.80;9.75;;;-0.40;99.90;;;;;;5042687;28;20033;-70
2022/03/09 02:49:18;;;;;;;15.55;9.50;;;-0.50;99.90;;;;;;5038884;28;20021;-69
2022/03/09 02:51:43;;;;;;;15.85;9.38;;;-0.50;99.90;;;;;;5036473;28;20023;-70
2022/03/09 02:54:09;;;;;;;18.48;10.50;;;-0.50;99.90;;;;;;5035330;28;20035;-70
2022/03/09 02:56:35;;;;;;;16.70;10.43;;;-0.50;99.90;;;;;;5037592;28;20032;-70
2022/03/09 02:59:01;;;;;;;17.58;10.07;;;-0.60;99.90;;;;;;5045962;28;20524;-70
2022/03/09 03:01:27;;;;;;;17.50;9.50;;;-0.60;99.90;;;;;;5042288;28;21026;-70
2022/03/09 03:03:53;;;;;;;16.23;9.98;;;-0.60;99.90;;;;;;5047745;28;20247;-70
2022/03/09 03:06:18;;;;;;;16.60;9.43;;;-0.60;99.90;;;;;;5036068;28;20183;-69
2022/03/09 03:08:44;;;;;;;17.77;9.60;;;-0.70;99.90;;;;;;5025472;28;20121;-70
2022/03/09 03:11:10;;;;;;;15.38;9.63;;;-0.70;99.90;;;;;;5043492;28;20563;-70
2022/03/09 03:13:40;;;;;;;16.45;9.65;;;-0.70;99.90;;;;;;5049075;28;20087;-69
2022/03/09 03:16:07;;;;;;;16.75;9.48;;;-0.70;99.90;;;;;;5025315;28;20020;-69
2022/03/09 03:18:33;;;;;;;19.10;10.30;;;-0.80;99.90;;;;;;5046160;28;20035;-70
2022/03/09 03:20:59;;;;;;;18.10;9.75;;;-0.80;99.90;;;;;;5047489;28;20436;-70
2022/03/09 03:23:26;;;;;;;16.33;10.57;;;-0.80;99.90;;;;;;5034127;28;20021;-70
2022/03/09 03:25:53;;;;;;;18.58;10.60;;;-0.70;99.90;;;;;;5052117;28;20028;-70
2022/03/09 03:28:20;;;;;;;23.85;10.65;;;-0.60;99.90;;;;;;5023699;28;20119;-69
2022/03/09 03:30:46;;;;;;;17.15;10.32;;;-0.50;99.90;;;;;;5024552;28;20037;-69
2022/03/09 03:33:13;;;;;;;17.30;10.00;;;-0.40;99.90;;;;;;5023318;28;20366;-69
2022/03/09 03:35:39;;;;;;;17.50;10.15;;;-0.40;99.90;;;;;;5024247;28;20439;-69
2022/03/09 03:38:05;;;;;;;17.35;10.02;;;-0.40;99.90;;;;;;5012972;28;20032;-70
2022/03/09 03:40:30;;;;;;;18.40;9.90;;;-0.40;99.90;;;;;;5022827;28;20129;-69
2022/03/09 03:42:56;;;;;;;17.15;9.88;;;-0.50;99.90;;;;;;5023197;28;20448;-69
2022/03/09 03:45:22;;;;;;;13.55;8.75;;;-0.60;99.90;;;;;;5019617;28;20456;-69
2022/03/09 03:47:47;;;;;;;14.10;8.38;;;-0.70;99.90;;;;;;5026598;28;20642;-69
2022/03/09 03:50:13;;;;;;;15.52;8.93;;;-0.80;99.90;;;;;;5018317;28;20060;-69
2022/03/09 03:52:39;;;;;;;14.27;9.10;;;-0.80;99.90;;;;;;5022383;28;20026;-69
2022/03/09 03:55:05;;;;;;;14.38;8.73;;;-0.70;99.90;;;;;;5012200;28;20049;-69
2022/03/09 03:57:30;;;;;;;16.30;9.35;;;-0.60;99.90;;;;;;5026358;28;20664;-69
2022/03/09 03:59:56;;;;;;;19.17;9.60;;;-0.50;99.90;;;;;;5021482;28;20113;-69
2022/03/09 04:02:22;;;;;;;13.88;8.38;;;-0.50;99.90;;;;;;5025932;28;20060;-69
2022/03/09 04:04:47;;;;;;;13.90;9.02;;;-0.50;99.90;;;;;;5008593;28;20057;-69
2022/03/09 04:07:13;;;;;;;14.73;8.93;;;-0.60;99.90;;;;;;5026610;28;20096;-69
2022/03/09 04:09:39;;;;;;;17.17;9.40;;;-0.60;99.90;;;;;;5025578;28;20198;-70
2022/03/09 04:12:05;;;;;;;17.85;9.60;;;-0.50;99.90;;;;;;5015394;28;20041;-69
2022/03/09 04:14:31;;;;;;;16.23;9.00;;;-0.40;99.90;;;;;;5012352;28;20025;-69
2022/03/09 04:16:56;;;;;;;13.93;8.90;;;-0.30;99.90;;;;;;5027875;28;20021;-69
2022/03/09 04:19:23;;;;;;;14.63;8.80;;;-0.30;99.90;;;;;;5027924;28;20483;-69
2022/03/09 04:21:48;;;;;;;18.38;9.93;;;-0.40;99.90;;;;;;5041519;28;20485;-69
2022/03/09 04:24:14;;;;;;;19.92;11.13;;;-0.20;99.90;;;;;;5022019;28;20037;-69
2022/03/09 04:26:39;;;;;;;22.23;11.90;;;-0.10;99.90;;;;;;5022594;28;20038;-69
2022/03/09 04:29:05;;;;;;;21.65;11.20;;;0.10;99.90;;;;;;5036813;28;20046;-69
2022/03/09 04:31:30;;;;;;;21.08;12.73;;;0.20;99.90;;;;;;5031750;28;20025;-69
2022/03/09 04:33:56;;;;;;;20.83;11.93;;;0.30;99.90;;;;;;5029903;28;20033;-69
2022/03/09 04:36:22;;;;;;;21.20;11.27;;;0.30;99.90;;;;;;5039049;28;20029;-69
2022/03/09 04:38:47;;;;;;;21.67;11.73;;;0.30;99.90;;;;;;5048268;28;20025;-69
2022/03/09 04:41:13;;;;;;;19.48;11.20;;;0.20;99.90;;;;;;5040260;28;20025;-69
2022/03/09 04:43:38;;;;;;;19.13;11.50;;;0.20;99.90;;;;;;5038774;28;20047;-69
2022/03/09 04:46:04;;;;;;;20.65;11.07;;;0.20;99.90;;;;;;5045278;28;20029;-69
2022/03/09 04:48:29;;;;;;;19.48;11.13;;;0.00;99.90;;;;;;5041333;28;20033;-69
2022/03/09 04:50:55;;;;;;;17.75;9.90;;;-0.10;99.90;;;;;;5045967;28;20575;-69
2022/03/09 04:53:21;;;;;;;17.45;9.80;;;-0.20;99.90;;;;;;5057986;28;20718;-69
2022/03/09 04:55:46;;;;;;;17.55;9.60;;;-0.40;99.90;;;;;;5048167;28;20021;-69
2022/03/09 04:58:12;;;;;;;18.48;10.88;;;-0.50;99.90;;;;;;5045870;28;20016;-69
2022/03/09 05:00:37;;;;;;;20.45;11.50;;;-0.60;99.90;;;;;;5043173;28;20441;-69
2022/03/09 05:03:03;;;;;;;17.33;11.05;;;-0.70;99.90;;;;;;5047921;28;20021;-69
2022/03/09 05:05:29;;;;;;;21.83;11.20;;;-0.80;99.90;;;;;;5037408;28;20049;-69
2022/03/09 05:07:54;;;;;;;19.60;11.18;;;-0.90;99.90;;;;;;5054372;28;20040;-69
2022/03/09 05:10:20;;;;;;;16.65;9.95;;;-1.00;99.90;;;;;;5037080;28;20067;-69
2022/03/09 05:12:46;;;;;;;20.98;11.15;;;-1.20;99.90;;;;;;5047260;28;20033;-70
2022/03/09 05:15:11;;;;;;;21.13;10.65;;;-1.30;99.90;;;;;;5049489;28;20071;-70
2022/03/09 05:17:44;;;;;;;19.60;10.07;;;-1.40;99.90;;;;;;5040640;28;20025;-70
2022/03/09 05:20:11;;;;;;;17.33;10.10;;;;;;;;;;5042199;28;20040;-70
2022/03/09 05:22:37;;;;;;;24.30;11.98;;;-1.40;99.90;;;;;;5039771;28;20043;-70
2022/03/09 05:25:06;;;;;;;19.20;11.75;;;-1.40;99.90;;;;;;5051268;28;20112;-70
2022/03/09 05:27:32;;;;;;;19.83;11.88;;;-1.40;99.90;;;;;;5036568;28;20553;-70
2022/03/09 05:29:58;;;;;;;20.45;11.32;;;-1.40;99.90;;;;;;5035596;28;20037;-70
2022/03/09 05:32:24;;;;;;;20.55;11.70;;;-1.30;99.90;;;;;;5034152;28;20018;-70
2022/03/09 05:34:50;;;;;;;22.17;11.30;;;-1.20;99.90;;;;;;5033358;28;20024;-70
2022/03/09 05:37:16;;;;;;;21.60;11.65;;;-1.00;99.90;;;;;;5048687;28;20021;-70
2022/03/09 05:39:42;;;;;;;20.45;10.88;;;-0.70;99.90;;;;;;5035597;28;20111;-69
2022/03/09 05:42:08;;;;;;;18.23;10.48;;;-0.50;99.90;;;;;;5041259;28;20171;-69
2022/03/09 05:44:33;;;;;;;19.48;10.80;;;-0.40;99.90;;;;;;5040989;28;20223;-70
2022/03/09 05:46:59;;;;;;;20.25;10.02;;;-0.40;99.90;;;;;;5036960;28;20028;-69
2022/03/09 05:49:25;;;;;;;15.60;9.43;;;-0.40;99.90;;;;;;5033160;28;20033;-69
2022/03/09 05:51:52;;;;;;;18.77;10.63;;;-0.50;99.90;;;;;;5029345;28;20037;-69
2022/03/09 05:54:18;;;;;;;18.90;10.95;;;-0.50;99.90;;;;;;5037198;28;20025;-69
2022/03/09 05:56:44;;;;;;;24.15;11.15;;;-0.40;99.90;;;;;;5041046;28;20037;-69
2022/03/09 05:59:10;;;;;;;17.25;9.88;;;-0.30;99.90;;;;;;5039853;28;20072;-69
2022/03/09 06:01:36;;;;;;;22.35;10.55;;;-0.20;99.90;;;;;;5038665;28;20692;-69
2022/03/09 06:04:02;;;;;;;17.77;10.20;;;-0.20;99.90;;;;;;5036719;28;20436;-69
2022/03/09 06:06:28;;;;;;;17.90;10.63;;;-0.30;99.90;;;;;;5043133;28;20387;-69
2022/03/09 06:08:54;;;;;;;16.90;10.13;;;-0.30;99.90;;;;;;5041319;28;20026;-69
2022/03/09 06:11:20;;;;;;;17.42;10.70;;;-0.20;99.90;;;;;;5041903;28;20024;-69
2022/03/09 06:13:45;;;;;;;19.02;10.15;;;-0.20;99.90;;;;;;5040987;28;20082;-69
2022/03/09 06:16:11;;;;;;;18.67;10.27;;;-0.40;99.90;;;;;;5048313;28;20051;-69
2022/03/09 06:18:37;;;;;;;16.30;9.50;;;-0.50;99.90;;;;;;5039619;28;20040;-69
2022/03/09 06:21:03;;;;;;;17.85;9.85;;;-0.70;99.90;;;;;;5041981;28;20034;-69
2022/03/09 06:23:29;;;;;;;17.45;10.18;;;-0.70;99.90;;;;;;5058311;28;20028;-69
2022/03/09 06:25:54;;;;;;;15.63;9.40;;;-0.80;99.90;;;;;;5050415;28;20107;-69
2022/03/09 06:28:20;;;;;;;15.60;9.60;;;-0.80;99.90;;;;;;5037507;28;21272;-69
2022/03/09 06:30:46;;;;;;;18.35;9.82;;;-0.90;99.90;;;;;;5057236;28;20470;-69
2022/03/09 06:33:11;;;;;;;16.63;10.00;;;-1.00;99.90;;;;;;5037212;28;20017;-69
2022/03/09 06:35:38;;;;;;;18.02;10.10;;;-1.10;99.90;;;;;;5040941;28;20020;-69
2022/03/09 06:38:04;;;;;;;16.40;9.60;;;-1.10;99.90;;;;;;5043953;28;20196;-70
2022/03/09 06:40:29;;;;;;;18.73;10.95;;;-1.20;99.90;;;;;;5029397;28;20045;-69
2022/03/09 06:42:55;;;;;;;44.58;24.48;;;-1.20;99.90;;;;;;5047062;28;20028;-70
2022/03/09 06:45:21;;;;;;;49.17;27.38;;;;;;;;;;5026026;28;20428;-69
2022/03/09 06:47:47;;;;;;;52.92;28.20;;;;;;;;;;5032698;28;20112;-69
2022/03/09 06:50:14;;;;;;;54.90;29.35;;;;;;;;;;5043595;28;20025;-69
2022/03/09 06:52:40;;;;;;;47.20;26.25;;;;;;;;;;5045136;28;20017;-69
2022/03/09 06:55:07;;;;;;;37.97;21.60;;;;;;;;;;5034990;28;20537;-69
2022/03/09 06:57:34;;;;;;;39.20;19.63;;;;;;;;;;5041042;28;20147;-69
2022/03/09 07:00:00;;;;;;;32.75;17.88;;;;;;;;;;5040303;28;20115;-68
2022/03/09 07:02:26;;;;;;;25.90;16.13;;;;;;;;;;5036168;28;20430;-68
2022/03/09 07:04:52;;;;;;;28.48;16.10;;;;;;;;;;5031921;28;20048;-69
2022/03/09 07:07:18;;;;;;;27.92;15.57;;;;;;;;;;5038620;28;20207;-69
2022/03/09 07:09:44;;;;;;;26.48;15.02;;;;;;;;;;5030377;28;20025;-69
2022/03/09 07:12:10;;;;;;;24.48;13.93;;;;;;;;;;5026317;28;20052;-69
2022/03/09 07:14:36;;;;;;;24.17;13.45;;;;;;;;;;5026330;28;20485;-69
2022/03/09 07:17:03;;;;;;;24.70;13.32;;;;;;;;;;5039330;28;20032;-69
2022/03/09 07:19:28;;;;;;;25.55;13.93;;;;;;;;;;5026883;28;20503;-69
2022/03/09 07:21:54;;;;;;;22.80;12.57;;;;;;;;;;5026636;28;20105;-69
2022/03/09 07:24:21;;;;;;;21.88;12.57;;;;;;;;;;5023901;28;20424;-69
2022/03/09 07:26:47;;;;;;;20.27;11.90;;;;;;;;;;5041212;28;20499;-68
2022/03/09 07:29:13;;;;;;;21.30;11.95;;;;;;;;;;5032689;28;20063;-69
2022/03/09 07:31:39;;;;;;;24.15;12.57;;;;;;;;;;5026110;28;20397;-69
2022/03/09 07:34:06;;;;;;;20.58;11.90;;;;;;;;;;5023859;28;20060;-69
2022/03/09 07:36:32;;;;;;;19.88;10.98;;;;;;;;;;5026079;28;20484;-69
2022/03/09 07:38:58;;;;;;;20.75;11.63;;;;;;;;;;5026556;28;20029;-69
2022/03/09 07:41:24;;;;;;;19.05;11.63;;;;;;;;;;5025967;28;20040;-69
2022/03/09 07:43:50;;;;;;;24.50;11.85;;;;;;;;;;5026484;28;20041;-69
2022/03/09 07:46:16;;;;;;;20.55;10.80;;;;;;;;;;5025861;28;20104;-69
2022/03/09 07:48:42;;;;;;;23.20;12.40;;;;;;;;;;5037422;28;20613;-69
2022/03/09 07:51:08;;;;;;;23.92;13.07;;;;;;;;;;5044954;28;20029;-69
2022/03/09 07:53:34;;;;;;;45.15;22.25;;;;;;;;;;5035377;28;20104;-69
2022/03/09 07:56:00;;;;;;;43.55;22.90;;;;;;;;;;5040591;28;20432;-69
2022/03/09 07:58:26;;;;;;;32.63;16.10;;;;;;;;;;5026144;28;20026;-69
2022/03/09 08:00:52;;;;;;;43.67;20.42;;;;;;;;;;5040504;28;20044;-69
2022/03/09 08:03:18;;;;;;;53.88;25.65;;;;;;;;;;5029841;28;20195;-68
2022/03/09 08:05:44;;;;;;;47.40;21.80;;;;;;;;;;5023403;28;20500;-69
2022/03/09 08:08:10;;;;;;;29.08;15.38;;;;;;;;;;5025587;28;20037;-69
2022/03/09 08:10:36;;;;;;;27.20;15.75;;;;;;;;;;5027081;28;20417;-69
2022/03/09 08:13:02;;;;;;;26.73;15.00;;;;;;;;;;5034735;28;20103;-68
2022/03/09 08:15:28;;;;;;;26.58;15.02;;;;;;;;;;5030310;28;20032;-69
2022/03/09 08:17:54;;;;;;;42.80;15.40;;;;;;;;;;5040262;28;20021;-69
2022/03/09 08:20:20;;;;;;;26.30;14.70;;;;;;;;;;5043261;28;20033;-69
2022/03/09 08:22:46;;;;;;;24.15;13.73;;;;;;;;;;5033684;28;20032;-68
2022/03/09 08:25:12;;;;;;;25.80;13.55;;;;;;;;;;5043704;28;20029;-69
2022/03/09 08:27:38;;;;;;;19.98;12.85;;;;;;;;;;5037674;28;20076;-69
2022/03/09 08:30:04;;;;;;;22.98;13.32;;;;;;;;;;5028715;28;20536;-68
2022/03/09 08:32:30;;;;;;;19.33;12.18;;;;;;;;;;5028137;28;20376;-68
2022/03/09 08:34:56;;;;;;;21.90;12.95;;;2.80;99.90;;;;;;5028661;28;20025;-69
2022/03/09 08:37:22;;;;;;;19.95;11.90;;;2.90;99.90;;;;;;5028966;28;20417;-68
2022/03/09 08:39:48;;;;;;;19.48;12.10;;;2.90;99.90;;;;;;5028602;28;20392;-68
2022/03/09 08:42:17;;;;;;;18.30;11.43;;;3.00;99.90;;;;;;5033522;28;20035;-69
2022/03/09 08:44:43;;;;;;;18.85;11.35;;;3.20;99.90;;;;;;5045531;28;20037;-69
2022/03/09 08:47:09;;;;;;;18.95;11.38;;;3.40;99.90;;;;;;5046605;28;20040;-69
2022/03/09 08:49:39;;;;;;;16.50;10.45;;;3.50;99.90;;;;;;5036608;28;20029;-69
2022/03/09 08:52:08;;;;;;;17.33;11.20;;;3.60;99.90;;;;;;5038123;28;20041;-69
2022/03/09 08:54:34;;;;;;;22.83;11.95;;;3.80;99.90;;;;;;5026562;28;20029;-69
2022/03/09 08:56:59;;;;;;;21.25;11.82;;;4.00;99.90;;;;;;5028435;28;20079;-69
2022/03/09 08:59:25;;;;;;;22.90;12.35;;;4.10;99.90;;;;;;5028506;28;20060;-69
2022/03/09 09:01:50;;;;;;;19.67;12.25;;;4.20;99.90;;;;;;5036582;28;20044;-69
2022/03/09 09:04:16;;;;;;;24.02;12.38;;;4.20;99.90;;;;;;5045923;28;20051;-69
2022/03/09 09:06:43;;;;;;;19.77;11.70;;;4.30;99.90;;;;;;5029507;28;20053;-69
2022/03/09 09:09:09;;;;;;;21.77;12.05;;;4.40;99.90;;;;;;5028893;28;20098;-69
2022/03/09 09:11:35;;;;;;;19.60;11.88;;;4.60;99.90;;;;;;5027652;28;20337;-69
2022/03/09 09:14:01;;;;;;;22.50;11.63;;;4.70;99.90;;;;;;5036658;28;20393;-68
2022/03/09 09:16:27;;;;;;;20.65;11.65;;;4.80;99.90;;;;;;5044775;28;20078;-68
2022/03/09 09:18:52;;;;;;;20.90;12.00;;;4.90;99.90;;;;;;5030920;28;20032;-69
2022/03/09 09:21:18;;;;;;;19.27;12.02;;;5.00;99.90;;;;;;5032759;28;20033;-69
2022/03/09 09:23:44;;;;;;;25.77;12.57;;;5.10;99.90;;;;;;5026185;28;20039;-69
2022/03/09 09:26:09;;;;;;;20.30;11.68;;;5.20;99.90;;;;;;5033111;28;20033;-68
2022/03/09 09:28:35;;;;;;;16.70;11.32;;;5.40;99.90;;;;;;5035164;28;20045;-69
2022/03/09 09:31:01;;;;;;;20.27;11.85;;;5.50;99.90;;;;;;5027322;28;20025;-69
2022/03/09 09:33:26;;;;;;;17.92;11.55;;;5.70;99.90;;;;;;5028476;28;20481;-69
2022/03/09 09:35:52;;;;;;;21.80;12.57;;;5.90;99.90;;;;;;5027095;28;20036;-69
2022/03/09 09:38:18;;;;;;;17.27;11.20;;;6.10;99.90;;;;;;5026800;28;20546;-69
2022/03/09 09:40:45;;;;;;;20.42;11.15;;;6.30;99.90;;;;;;5027904;28;20033;-69
2022/03/09 09:43:15;;;;;;;16.85;10.25;;;6.40;99.90;;;;;;5038084;28;20365;-69
2022/03/09 09:45:42;;;;;;;22.20;11.32;;;6.60;99.90;;;;;;5024252;28;20726;-69
2022/03/09 09:48:09;;;;;;;18.25;10.50;;;6.80;99.90;;;;;;5027277;28;20280;-69
2022/03/09 09:50:37;;;;;;;18.08;11.43;;;7.00;99.90;;;;;;5030674;28;20040;-69
2022/03/09 09:53:04;;;;;;;16.45;11.05;;;7.10;99.90;;;;;;5035986;28;20085;-69
2022/03/09 09:55:31;;;;;;;18.25;12.20;;;7.30;99.90;;;;;;5038894;28;20496;-69
2022/03/09 09:57:57;;;;;;;16.73;10.98;;;7.40;99.90;;;;;;5041191;28;20451;-69
2022/03/09 10:00:23;;;;;;;19.60;12.07;;;7.50;99.90;;;;;;5031948;28;20029;-69
2022/03/09 10:02:49;;;;;;;17.42;11.25;;;7.70;99.90;;;;;;5027389;28;20029;-69
2022/03/09 10:05:16;;;;;;;19.58;10.80;;;7.70;99.30;;;;;;5025250;28;20485;-69
2022/03/09 10:08:03;;;;;;;17.00;11.38;;;7.70;98.50;;;;;;5027446;28;20106;-69
2022/03/09 10:10:30;;;;;;;20.17;11.63;;;7.70;98.60;;;;;;5031489;28;20586;-70
2022/03/09 10:13:16;;;;;;;18.65;11.38;;;7.80;98.60;;;;;;5034729;28;20033;-70
2022/03/09 10:15:44;;;;;;;17.65;10.43;;;8.00;97.20;;;;;;5044385;28;20445;-70
2022/03/09 10:18:17;;;;;;;18.95;11.60;;;8.00;96.40;;;;;;5047003;28;20558;-69
2022/03/09 10:20:44;;;;;;;18.92;11.05;;;8.00;94.80;;;;;;5045061;28;20017;-70
2022/03/09 10:23:10;;;;;;;20.85;11.85;;;8.10;94.50;;;;;;5035955;28;20056;-70
2022/03/09 10:25:38;;;;;;;20.77;11.80;;;8.10;93.80;;;;;;5025804;28;20053;-70
2022/03/09 10:28:13;;;;;;;19.38;11.40;;;8.20;94.40;;;;;;5032148;28;20095;-70
2022/03/09 10:30:41;;;;;;;21.30;12.63;;;8.30;94.20;;;;;;5042520;28;20040;-70
2022/03/09 10:33:09;;;;;;;17.27;10.98;;;8.40;93.00;;;;;;5044132;28;20041;-68
2022/03/09 10:35:45;;;;;;;20.83;11.88;;;8.50;92.50;;;;;;5036907;28;20321;-69
2022/03/09 10:38:19;;;;;;;21.02;11.50;;;8.60;92.20;;;;;;5043801;28;20029;-70
2022/03/09 10:40:47;;;;;;;23.27;13.50;;;8.70;91.90;;;;;;5045414;28;20029;-69
2022/03/09 10:43:28;;;;;;;18.55;11.48;;;8.70;90.80;;;;;;5031488;28;20108;-69
2022/03/09 10:46:11;;;;;;;19.15;11.68;;;8.80;90.30;;;;;;5037655;28;20040;-69
2022/03/09 10:49:01;;;;;;;24.02;12.65;;;8.80;88.40;;;;;;5038542;28;20048;-69
2022/03/09 10:51:34;;;;;;;28.08;14.57;;;9.00;88.00;;;;;;5042761;28;20033;-69
2022/03/09 10:54:01;;;;;;;;;;;9.00;88.80;;;;;;5037100;28;20025;-70
2022/03/09 10:56:27;;;;;;;20.05;12.02;;;9.20;88.20;;;;;;5034794;28;19960;-70
2022/03/09 10:58:53;;;;;;;18.58;11.80;;;9.20;87.90;;;;;;5035204;28;20056;-70
2022/03/09 11:01:20;;;;;;;17.17;11.18;;;9.30;86.90;;;;;;5037404;28;20036;-70
2022/03/09 11:03:47;;;;;;;18.27;11.15;;;9.30;85.40;;;;;;5031797;28;20025;-70
2022/03/09 11:06:14;;;;;;;14.68;10.35;;;9.40;85.20;;;;;;5037079;28;20033;-70
2022/03/09 11:08:43;;;;;;;17.60;11.23;;;9.40;84.60;;;;;;5042161;28;20037;-70
2022/03/09 11:11:09;;;;;;;16.88;10.75;;;9.50;83.70;;;;;;5026420;28;20029;-70
2022/03/09 11:13:37;;;;;;;16.80;10.23;;;9.50;83.90;;;;;;5026486;28;20033;-69
2022/03/09 11:16:04;;;;;;;13.85;10.18;;;9.60;82.30;;;;;;5043662;28;20463;-70
2022/03/09 11:18:32;;;;;;;16.08;10.02;;;9.70;81.40;;;;;;5028930;28;20308;-70
2022/03/09 11:21:00;;;;;;;17.77;9.70;;;9.80;79.20;;;;;;4341549;28;10001314;-70
2022/03/09 11:23:27;;;;;;;15.32;9.90;;;9.80;76.10;;;;;;5050001;28;20124;-70
2022/03/09 11:26:10;;;;;;;16.65;9.38;;;9.90;76.90;;;;;;5047550;28;20036;-70
2022/03/09 11:28:38;;;;;;;16.13;9.73;;;9.90;75.90;;;;;;5045086;28;20408;-70
2022/03/09 11:31:09;;;;;;;15.73;10.07;;;10.10;77.30;;;;;;5041843;28;20040;-70
2022/03/09 11:33:56;;;;;;;18.05;10.57;;;10.20;76.20;;;;;;5042529;28;20082;-70
2022/03/09 11:36:21;;;;;;;18.85;10.27;;;10.40;74.60;;;;;;5044404;28;20029;-71
2022/03/09 11:38:52;;;;;;;17.00;11.20;;;10.50;74.90;;;;;;5044315;28;20476;-70
2022/03/09 11:41:28;;;;;;;14.20;9.73;;;10.60;75.00;;;;;;5040294;28;20042;-70
2022/03/09 11:44:14;;;;;;;16.50;10.43;;;10.70;72.40;;;;;;5046846;28;20106;-70
2022/03/09 11:46:59;;;;;;;14.32;8.65;;;10.70;73.10;;;;;;5048430;28;20318;-70
2022/03/09 11:49:32;;;;;;;13.23;9.02;;;10.80;67.50;;;;;;5052003;28;20124;-70
2022/03/09 11:52:09;;;;;;;16.50;10.45;;;10.90;69.90;;;;;;5045521;28;20029;-70
2022/03/09 11:54:56;;;;;;;15.57;9.38;;;11.00;70.80;;;;;;5030838;28;20132;-71
2022/03/09 11:57:23;;;;;;;17.60;10.18;;;11.10;68.70;;;;;;5026467;28;20026;-70
2022/03/09 12:00:10;;;;;;;19.05;10.00;;;11.30;67.40;;;;;;5034473;28;20040;-72
2022/03/09 12:02:40;;;;;;;19.58;11.07;;;;;;;;;;5035661;28;20104;-69
2022/03/09 12:05:06;;;;;;;15.95;9.32;;;;;;;;;;5022469;28;20044;-69
2022/03/09 12:07:35;;;;;;;17.00;9.25;;;;;;;;;;5027438;28;20629;-69
2022/03/09 12:10:06;;;;;;;14.50;8.90;;;;;;;;;;5028085;28;20033;-69
2022/03/09 12:12:33;;;;;;;12.73;9.10;;;;;;;;;;5043819;28;20030;-70
2022/03/09 12:15:16;;;;;;;18.05;10.77;;;;;;;;;;5032791;28;20033;-70
2022/03/09 12:17:49;;;;;;;15.50;9.93;;;;;;;;;;5045989;28;20033;-70
2022/03/09 12:20:25;;;;;;;14.80;9.55;;;;;;;;;;5034534;28;20061;-69
2022/03/09 12:23:00;;;;;;;14.88;8.60;;;;;;;;;;5033958;28;20029;-69
2022/03/09 12:25:40;;;;;;;11.75;8.38;;;;;;;;;;5025146;28;20039;-69
2022/03/09 12:28:24;;;;;;;14.18;9.27;;;;;;;;;;5036314;28;20489;-69
2022/03/09 12:30:52;;;;;;;12.00;9.30;;;;;;;;;;5025739;28;20084;-69
2022/03/09 12:33:37;;;;;;;15.95;8.98;;;;;;;;;;5041065;28;20111;-69
2022/03/09 12:36:08;;;;;;;13.20;8.32;;;;;;;;;;5036704;28;20029;-70
2022/03/09 12:38:41;;;;;;;13.48;9.07;;;;;;;;;;5043207;28;20098;-70
2022/03/09 12:41:23;;;;;;;14.05;8.80;;;;;;;;;;5037923;28;20420;-70
2022/03/09 12:43:50;;;;;;;14.52;8.90;;;;;;;;;;5030561;28;20025;-71
2022/03/09 12:46:17;;;;;;;12.93;8.70;;;;;;;;;;5037434;28;20044;-70
2022/03/09 12:48:43;;;;;;;15.63;9.15;;;;;;;;;;5040238;28;20381;-70
2022/03/09 12:51:09;;;;;;;14.90;8.60;;;;;;;;;;5035147;28;20029;-70
2022/03/09 12:53:35;;;;;;;14.10;8.75;;;;;;;;;;5042993;28;20082;-70
2022/03/09 12:56:18;;;;;;;15.27;8.98;;;12.70;53.30;;;;;;5027157;28;20060;-71
2022/03/09 12:58:44;;;;;;;14.98;8.77;;;12.60;53.60;;;;;;5023039;28;20037;-71